KFLG/FLG METAR and TAF weather

Enter ICAO airport designator
Station Type Date Time Source
KFLG METAR 2021/07/27 21:57 UTC NOAA

KFLG 272157Z 21010G17KT 10SM CLR 24/09 A3035 RMK AO2 LTG DSNT N AND NE SLP176 T02440094


Station Type Date Time Source
KFLG Decoded METAR 2021/07/27 21:57 UTC NOAA

FLAGSTAFF PULLIAM AIRPORT, AZ, United States (KFLG) 35-08N 111-40W 2134M
Jul 27, 2021 - 05:57 PM EDT / 2021.07.27 2157 UTC
Wind: from the SSW (210 degrees) at 12 MPH (10 KT) gusting to 20 MPH (17 KT):0
Visibility: 10 mile(s):0
Sky conditions: clear
Weather: Lightning observed
Temperature: 75.9 F (24.4 C)
Dew Point: 48.9 F (9.4 C)
Relative Humidity: 38%
Pressure (altimeter): 30.35 in. Hg (1027 hPa)
ob: KFLG 272157Z 21010G17KT 10SM CLR 24/09 A3035 RMK AO2 LTG DSNT N AND NE SLP176 T02440094
cycle: 22

Station Type Date Time Source
KFLG TAF 2021/07/27 18:33 UTC NOAA

TAF KFLG 271730Z 2718/2818 21007KT P6SM VCSH FEW035 BKN080
TEMPO 2718/2722 5SM TSRA BKN060CB BKN070
FM272300 23008G14KT P6SM VCSH FEW060 SCT100
FM280000 24007KT P6SM FEW060 SCT250

Example: see airport list